Time;durP1;ratioP1;P1;durP2;ratioP2;P2;SDS_P1;SDS_P2;PMS_P1;PMS_P2;Temp;Humidity;BMP_temperature;BMP_pressure;BME280_temperature;BME280_humidity;BME280_pressure;Samples;Min_cycle;Max_cycle;Signal;HPM_P1;HPM_P2
2024/04/14 00:01:11;;;;;;;;;;;;;;;13.35;48.39;95900.47;5380099;26;19936;-67
2024/04/14 00:03:36;;;;;;;;;;;;;;;13.61;48.29;95901.78;5390966;26;19939;-67
2024/04/14 00:06:01;;;;;;;;;;;;;;;13.54;48.43;95904.41;5386847;26;19929;-69
2024/04/14 00:08:27;;;;;;;;;;;;;;;13.21;49.14;95900.34;5389947;26;19989;-69
2024/04/14 00:10:52;;;;;;;;;;;;;;;13.44;48.76;95888.66;5385969;26;19937;-67
2024/04/14 00:13:18;;;;;;;;;;;;;;;13.21;49.13;95891.50;5379184;26;19950;-68
2024/04/14 00:15:43;;;;;;;;;;;;;;;13.39;48.91;95885.72;5376089;26;19937;-70
2024/04/14 00:18:08;;;;;;;;;;;;;;;13.20;49.32;95884.50;5384829;26;19929;-67
2024/04/14 00:20:33;;;;;;;;;;;;;;;13.06;49.70;95889.69;5389569;26;20356;-67
2024/04/14 00:22:59;;;;;;;;;;;;;;;12.93;50.10;95879.63;5390982;26;19929;-68
2024/04/14 00:25:24;;;;;;;;;;;;;;;12.61;51.13;95890.53;5389600;26;20258;-68
2024/04/14 00:27:49;;;;;;;;;;;;;;;12.40;52.25;95897.44;5394087;26;20013;-67
2024/04/14 00:30:15;;;;;;;;;;;;;;;12.00;53.23;95892.25;5395150;26;20763;-70
2024/04/14 00:32:40;;;;;;;;;;;;;;;11.20;56.88;95892.50;5393970;26;19929;-68
2024/04/14 00:35:05;;;;;;;;;;;;;;;11.74;55.03;95881.97;5392828;26;19929;-70
2024/04/14 00:37:31;;;;;;;;;;;;;;;11.44;56.05;95880.03;5387318;26;20372;-69
2024/04/14 00:39:56;;;;;;;;;;;;;;;11.29;57.03;95871.94;5394476;26;20249;-68
2024/04/14 00:42:21;;;;;;;;;;;;;;;11.37;56.82;95874.59;5388642;26;19933;-70
2024/04/14 00:44:47;;;;;;;;;;;;;;;11.45;56.83;95870.19;5394445;26;19929;-68
2024/04/14 00:47:12;;;;;;;;;;;;;;;10.98;58.61;95870.13;5394872;26;19961;-69
2024/04/14 00:49:38;;;;;;;;;;;;;;;11.05;58.54;95867.56;5390108;26;20145;-66
2024/04/14 00:52:03;;;;;;;;;;;;;;;10.84;59.47;95864.50;5387534;26;19929;-68
2024/04/14 00:54:32;;;;;;;;;;;;;;;10.95;59.33;95865.13;5393535;26;19942;-69
2024/04/14 00:56:57;;;;;;;;;;;;;;;11.02;58.70;95871.44;5392831;26;19929;-69
2024/04/14 00:59:23;;;;;;;;;;;;;;;11.17;59.05;95874.19;5391664;26;19929;-68
2024/04/14 01:01:48;;;;;;;;;;;;;;;11.15;59.07;95873.53;5413198;26;19941;-66
2024/04/14 01:04:13;;;;;;;;;;;;;;;11.51;57.47;95878.31;5394012;26;20195;-69
2024/04/14 01:06:39;;;;;;;;;;;;;;;11.21;59.04;95875.50;5394112;26;19969;-68
2024/04/14 01:09:04;;;;;;;;;;;;;;;11.12;59.16;95872.06;5393191;26;20257;-67
2024/04/14 01:11:29;;;;;;;;;;;;;;;11.15;59.80;95870.06;5394291;26;19933;-64
2024/04/14 01:13:54;;;;;;;;;;;;;;;10.97;59.73;95882.59;5393702;26;19937;-67
2024/04/14 01:16:20;;;;;;;;;;;;;;;11.04;59.67;95882.72;5394080;26;20405;-66
2024/04/14 01:18:45;;;;;;;;;;;;;;;11.14;59.78;95877.22;5386745;26;20288;-64
2024/04/14 01:21:10;;;;;;;;;;;;;;;11.59;58.50;95872.09;5394805;26;20344;-67
2024/04/14 01:23:37;;;;;;;;;;;;;;;11.57;57.69;95876.78;5391769;26;19932;-66
2024/04/14 01:26:02;;;;;;;;;;;;;;;11.88;57.39;95875.88;5388275;26;19929;-65
2024/04/14 01:28:28;;;;;;;;;;;;;;;11.98;57.01;95877.44;5376818;26;19929;-66
2024/04/14 01:30:53;;;;;;;;;;;;;;;11.51;58.29;95888.13;5384495;26;19936;-65
2024/04/14 01:33:18;;;;;;;;;;;;;;;11.69;58.52;95879.03;5375750;26;20252;-66
2024/04/14 01:35:43;;;;;;;;;;;;;;;11.58;58.96;95880.25;5392671;26;19945;-65
2024/04/14 01:38:09;;;;;;;;;;;;;;;11.64;58.19;95879.56;5376568;26;19930;-67
2024/04/14 01:40:34;;;;;;;;;;;;;;;11.51;58.75;95880.97;5387031;26;19929;-67
2024/04/14 01:42:59;;;;;;;;;;;;;;;10.94;60.84;95879.44;5387950;26;19981;-66
2024/04/14 01:45:24;;;;;;;;;;;;;;;10.71;60.97;95885.53;5390462;26;19929;-66
2024/04/14 01:47:50;;;;;;;;;;;;;;;10.75;61.27;95873.53;5387391;26;19930;-67
2024/04/14 01:50:15;;;;;;;;;;;;;;;11.30;59.52;95872.78;5384428;26;20646;-66
2024/04/14 01:52:40;;;;;;;;;;;;;;;10.34;62.16;95883.31;5382444;26;19936;-66
2024/04/14 01:55:06;;;;;;;;;;;;;;;10.46;62.17;95881.13;5391791;26;20457;-67
2024/04/14 01:57:32;;;;;;;;;;;;;;;10.38;62.98;95874.97;5391203;26;19937;-65
2024/04/14 01:59:57;;;;;;;;;;;;;;;10.56;62.02;95872.09;5393285;26;19929;-65
2024/04/14 02:02:22;;;;;;;;;;;;;;;10.64;61.08;95868.59;5385504;26;19929;-66
2024/04/14 02:04:47;;;;;;;;;;;;;;;10.40;61.49;95875.66;5383730;26;20084;-66
2024/04/14 02:07:13;;;;;;;;;;;;;;;9.84;63.88;95875.38;5387991;26;20201;-66
2024/04/14 02:09:38;;;;;;;;;;;;;;;9.61;64.51;95877.03;5392050;26;19929;-66
2024/04/14 02:12:03;;;;;;;;;;;;;;;9.70;64.04;95884.03;5392381;26;19937;-65
2024/04/14 02:14:29;;;;;;;;;;;;;;;9.84;64.53;95883.38;5392039;26;20030;-64
2024/04/14 02:16:54;;;;;;;;;;;;;;;10.27;62.43;95877.00;5389837;26;19977;-66
2024/04/14 02:19:19;;;;;;;;;;;;;;;10.75;60.27;95881.53;5392961;26;20006;-65
2024/04/14 02:21:44;;;;;;;;;;;;;;;11.25;58.89;95889.28;5389013;26;20013;-65
2024/04/14 02:24:10;;;;;;;;;;;;;;;10.74;59.15;95887.84;5390910;26;19945;-66
2024/04/14 02:26:35;;;;;;;;;;;;;;;11.31;58.22;95887.75;5385786;26;19936;-67
2024/04/14 02:29:00;;;;;;;;;;;;;;;10.15;60.89;95887.19;5392690;26;19929;-65
2024/04/14 02:31:25;;;;;;;;;;;;;;;10.70;59.19;95890.03;5389214;26;19929;-67
2024/04/14 02:33:51;;;;;;;;;;;;;;;11.06;58.56;95888.72;5385781;26;20340;-66
2024/04/14 02:36:16;;;;;;;;;;;;;;;11.48;56.63;95896.50;5392481;26;20548;-66
2024/04/14 02:38:41;;;;;;;;;;;;;;;11.99;55.43;95887.09;5391287;26;19940;-66
2024/04/14 02:41:07;;;;;;;;;;;;;;;12.08;54.54;95887.88;5394338;26;19937;-66
2024/04/14 02:43:35;;;;;;;;;;;;;;;12.00;53.41;95886.13;5390915;26;20760;-67
2024/04/14 02:46:00;;;;;;;;;;;;;;;11.38;54.63;95894.06;5390353;26;19953;-66
2024/04/14 02:48:25;;;;;;;;;;;;;;;11.07;56.59;95901.03;5387596;26;20000;-65
2024/04/14 02:50:50;;;;;;;;;;;;;;;11.23;55.77;95900.16;5385026;26;19929;-66
2024/04/14 02:53:16;;;;;;;;;;;;;;;10.69;58.04;95900.84;5389052;26;19935;-65
2024/04/14 02:55:41;;;;;;;;;;;;;;;10.92;57.15;95900.09;5386191;26;20197;-65
2024/04/14 02:58:07;;;;;;;;;;;;;;;10.68;56.03;95904.53;5390989;26;19933;-65
2024/04/14 03:00:32;;;;;;;;;;;;;;;9.87;53.95;95902.63;5384368;26;19936;-65
2024/04/14 03:02:57;;;;;;;;;;;;;;;9.29;53.53;95906.88;5392311;26;19935;-64
2024/04/14 03:05:23;;;;;;;;;;;;;;;8.97;52.50;95915.59;5393560;26;20370;-66
2024/04/14 03:07:51;;;;;;;;;;;;;;;8.77;52.24;95907.88;5395850;26;19929;-65
2024/04/14 03:10:16;;;;;;;;;;;;;;;8.68;49.40;95907.00;5384757;26;20154;-65
2024/04/14 03:12:41;;;;;;;;;;;;;;;8.60;49.27;95902.47;5389324;26;20418;-66
2024/04/14 03:15:07;;;;;;;;;;;;;;;8.61;51.53;95906.78;5388037;26;19936;-65
2024/04/14 03:17:32;;;;;;;;;;;;;;;8.92;48.60;95916.03;5388564;26;19936;-65
2024/04/14 03:19:57;;;;;;;;;;;;;;;8.29;47.55;95919.72;5395358;26;20366;-66
2024/04/14 03:22:23;;;;;;;;;;;;;;;8.29;48.02;95922.38;5394966;26;19936;-66
2024/04/14 03:24:48;;;;;;;;;;;;;;;8.27;47.35;95916.38;5389490;26;19929;-66
2024/04/14 03:27:13;;;;;;;;;;;;;;;8.31;46.71;95916.91;5387988;26;19929;-65
2024/04/14 03:29:38;;;;;;;;;;;;;;;8.35;46.60;95917.41;5396292;26;19929;-65
2024/04/14 03:32:04;;;;;;;;;;;;;;;8.51;45.60;95916.69;5396092;26;20344;-67
2024/04/14 03:34:29;;;;;;;;;;;;;;;8.90;44.77;95902.91;5390098;26;19929;-67
2024/04/14 03:36:55;;;;;;;;;;;;;;;8.27;45.68;95916.38;5395782;26;19932;-66
2024/04/14 03:39:20;;;;;;;;;;;;;;;8.26;44.92;95905.94;5395367;26;19943;-66
2024/04/14 03:41:45;;;;;;;;;;;;;;;7.97;45.37;95905.25;5395435;26;20361;-64
2024/04/14 03:44:10;;;;;;;;;;;;;;;8.11;45.32;95903.00;5394593;26;20631;-65
2024/04/14 03:46:36;;;;;;;;;;;;;;;7.92;45.48;95911.00;5395139;26;20002;-67
2024/04/14 03:49:01;;;;;;;;;;;;;;;7.82;45.89;95915.53;5394704;26;19952;-66
2024/04/14 03:51:26;;;;;;;;;;;;;;;7.73;45.46;95906.69;5391385;26;19936;-67
2024/04/14 03:53:51;;;;;;;;;;;;;;;7.64;45.59;95915.53;5392916;26;20365;-66
2024/04/14 03:56:17;;;;;;;;;;;;;;;7.99;45.38;95911.22;5394123;26;20592;-67
2024/04/14 03:58:43;;;;;;;;;;;;;;;7.97;45.82;95922.97;5394809;26;20426;-64
2024/04/14 04:01:08;;;;;;;;;;;;;;;8.14;44.79;95913.31;5388770;26;19937;-66
2024/04/14 04:03:33;;;;;;;;;;;;;;;7.90;45.29;95918.28;5394711;26;19929;-65
2024/04/14 04:05:58;;;;;;;;;;;;;;;7.62;45.53;95918.34;5390604;26;20287;-67
2024/04/14 04:08:24;;;;;;;;;;;;;;;7.43;45.44;95911.38;5394794;26;20262;-67
2024/04/14 04:10:58;;;;;;;;;;;;;;;7.70;45.27;95924.69;5394977;26;20011;-65
2024/04/14 04:13:24;;;;;;;;;;;;;;;7.47;45.42;95925.97;5391712;26;20464;-66
2024/04/14 04:16:03;;;;;;;;;;;;;;;7.15;45.85;95929.97;5394221;26;19936;-63
2024/04/14 04:18:28;;;;;;;;;;;;;;;7.49;45.90;95916.09;5388063;26;19940;-67
2024/04/14 04:21:00;;;;;;;;;;;;;;;7.66;44.08;95921.53;5392013;26;20561;-67
2024/04/14 04:23:26;;;;;;;;;;;;;;;7.61;45.24;95923.78;5390215;26;19952;-67
2024/04/14 04:25:52;;;;;;;;;;;;;;;7.14;45.90;95917.69;5379090;26;19929;-67
2024/04/14 04:28:17;;;;;;;;;;;;;;;7.22;45.48;95923.09;5394158;26;19936;-65
2024/04/14 04:30:42;;;;;;;;;;;;;;;7.14;45.90;95928.28;5392800;26;20002;-64
2024/04/14 04:33:07;;;;;;;;;;;;;;;7.26;45.90;95918.31;5388726;26;20443;-67
2024/04/14 04:35:33;;;;;;;;;;;;;;;7.21;46.00;95924.06;5392348;26;19929;-65
2024/04/14 04:37:58;;;;;;;;;;;;;;;7.12;46.23;95923.16;5394714;26;19979;-65
2024/04/14 04:40:23;;;;;;;;;;;;;;;7.22;46.09;95931.03;5391436;26;20017;-63
2024/04/14 04:42:49;;;;;;;;;;;;;;;7.33;45.02;95931.78;5393958;26;20469;-68
2024/04/14 04:45:14;;;;;;;;;;;;;;;7.40;45.35;95936.34;5390053;26;19936;-70
2024/04/14 04:47:39;;;;;;;;;;;;;;;7.26;45.76;95931.56;5393859;26;19984;-68
2024/04/14 04:50:04;;;;;;;;;;;;;;;7.29;45.39;95931.28;5387322;26;20469;-66
2024/04/14 04:52:30;;;;;;;;;;;;;;;7.42;45.56;95930.91;5385303;26;20354;-67
2024/04/14 04:54:55;;;;;;;;;;;;;;;7.41;45.36;95930.06;5394433;26;20056;-67
2024/04/14 04:57:20;;;;;;;;;;;;;;;7.37;45.89;95931.34;5392597;26;20702;-68
2024/04/14 04:59:45;;;;;;;;;;;;;;;7.39;45.97;95931.22;5362580;26;19941;-67
2024/04/14 05:02:11;;;;;;;;;;;;;;;7.07;46.16;95933.34;5393238;26;19992;-68
2024/04/14 05:04:36;;;;;;;;;;;;;;;7.03;46.42;95937.25;5389197;26;19937;-67
2024/04/14 05:07:01;;;;;;;;;;;;;;;7.02;46.26;95941.75;5386020;26;19936;-69
2024/04/14 05:09:26;;;;;;;;;;;;;;;6.96;46.35;95941.47;5393925;26;19929;-68
2024/04/14 05:11:52;;;;;;;;;;;;;;;7.12;46.12;95936.41;5394825;26;19933;-69
2024/04/14 05:14:17;;;;;;;;;;;;;;;7.04;46.77;95938.94;5389035;26;20353;-70
2024/04/14 05:16:42;;;;;;;;;;;;;;;7.36;45.91;95928.84;5393093;26;19933;-68
2024/04/14 05:19:07;;;;;;;;;;;;;;;7.36;46.10;95934.16;5391785;26;20233;-66
2024/04/14 05:21:33;;;;;;;;;;;;;;;7.37;46.09;95935.81;5393854;26;19929;-67
2024/04/14 05:23:58;;;;;;;;;;;;;;;7.50;46.66;95940.75;5387582;26;19940;-69
2024/04/14 05:26:23;;;;;;;;;;;;;;;7.44;46.05;95930.75;5383389;26;20374;-67
2024/04/14 05:28:48;;;;;;;;;;;;;;;7.68;46.21;95939.94;5391788;26;19929;-69
2024/04/14 05:31:14;;;;;;;;;;;;;;;7.71;46.39;95939.59;5394322;26;20005;-67
2024/04/14 05:33:39;;;;;;;;;;;;;;;7.77;46.42;95947.84;5390903;26;19936;-67
2024/04/14 05:36:04;;;;;;;;;;;;;;;7.83;46.29;95938.44;5388628;26;19933;-68
2024/04/14 05:38:32;;;;;;;;;;;;;;;7.51;47.56;95945.91;5391217;26;19989;-68
2024/04/14 05:40:57;;;;;;;;;;;;;;;7.41;48.17;95945.97;5385162;26;19973;-69
2024/04/14 05:43:22;;;;;;;;;;;;;;;7.50;47.41;95948.69;5391636;26;19995;-67
2024/04/14 05:45:47;;;;;;;;;;;;;;;7.30;48.57;95945.31;5392224;26;19951;-67
2024/04/14 05:48:13;;;;;;;;;;;;;;;7.17;48.84;95951.00;5392412;26;19929;-69
2024/04/14 05:50:39;;;;;;;;;;;;;;;7.13;49.97;95953.94;5393734;26;20340;-67
2024/04/14 05:53:04;;;;;;;;;;;;;;;6.91;49.73;95954.34;5387482;26;19993;-66
2024/04/14 05:55:29;;;;;;;;;;;;;;;7.27;48.59;95954.41;5393120;26;19929;-66
2024/04/14 05:57:54;;;;;;;;;;;;;;;7.01;49.75;95952.47;5388039;26;19977;-66
2024/04/14 06:00:20;;;;;;;;;;;;;;;7.14;48.73;95949.47;5385536;26;19929;-66
2024/04/14 06:02:45;;;;;;;;;;;;;;;6.94;49.51;95965.44;5393182;26;19929;-65
2024/04/14 06:05:11;;;;;;;;;;;;;;;7.17;48.52;95973.00;5391554;26;19929;-64
2024/04/14 06:07:36;;;;;;;;;;;;;;;7.07;49.08;95969.59;5392309;26;20498;-66
2024/04/14 06:10:01;;;;;;;;;;;;;;;7.31;48.89;95976.16;5388796;26;19937;-65
2024/04/14 06:12:27;;;;;;;;;;;;;;;7.20;49.89;95977.16;5392232;26;20014;-64
2024/04/14 06:14:52;;;;;;;;;;;;;;;7.49;49.80;95976.19;5390865;26;19940;-66
2024/04/14 06:17:17;;;;;;;;;;;;;;;7.23;50.11;95979.53;5388004;26;19963;-66
2024/04/14 06:19:42;;;;;;;;;;;;;;;7.17;49.21;95986.25;5390431;26;19929;-66
2024/04/14 06:22:08;;;;;;;;;;;;;;;7.30;50.14;95993.84;5387312;26;19965;-66
2024/04/14 06:24:34;;;;;;;;;;;;;;;7.48;49.55;95993.88;5388940;26;20378;-66
2024/04/14 06:26:59;;;;;;;;;;;;;;;7.13;49.98;95998.97;5387558;26;19928;-66
2024/04/14 06:29:24;;;;;;;;;;;;;;;7.21;51.18;95997.41;5393223;26;20323;-66
2024/04/14 06:31:49;;;;;;;;;;;;;;;7.38;50.25;95995.78;5393146;26;20325;-65
2024/04/14 06:34:15;;;;;;;;;;;;;;;7.44;50.03;96003.09;5387454;26;19998;-65
2024/04/14 06:36:40;;;;;;;;;;;;;;;6.97;50.80;96004.06;5392059;26;20358;-66
2024/04/14 06:39:05;;;;;;;;;;;;;;;6.85;52.42;95996.28;5390456;26;19933;-66
2024/04/14 06:41:30;;;;;;;;;;;;;;;6.79;52.65;95991.56;5392360;26;19933;-66
2024/04/14 06:43:56;;;;;;;;;;;;;;;7.05;51.31;95995.38;5392939;26;19933;-65
2024/04/14 06:46:21;;;;;;;;;;;;;;;6.81;51.90;96004.66;5391584;26;20309;-65
2024/04/14 06:48:46;;;;;;;;;;;;;;;6.92;52.28;96007.13;5392536;26;19929;-64
2024/04/14 06:51:11;;;;;;;;;;;;;;;7.09;51.47;95996.75;5390903;26;19935;-65
2024/04/14 06:53:36;;;;;;;;;;;;;;;6.70;53.54;96000.38;5392525;26;19936;-66
2024/04/14 06:56:03;;;;;;;;;;;;;;;6.97;52.41;96002.22;5391787;26;20445;-65
2024/04/14 06:58:29;;;;;;;;;;;;;;;6.57;55.39;95998.03;5392955;26;19929;-64
2024/04/14 07:00:54;;;;;;;;;;;;;;;7.08;53.31;95995.09;5384132;26;20373;-66
2024/04/14 07:03:19;;;;;;;;;;;;;;;6.68;53.82;95997.88;5393045;26;19929;-67
2024/04/14 07:05:44;;;;;;;;;;;;;;;7.28;53.56;95990.53;5384247;26;19974;-66
2024/04/14 07:08:10;;;;;;;;;;;;;;;7.43;52.76;96004.09;5392441;26;19929;-70
2024/04/14 07:10:36;;;;;;;;;;;;;;;6.97;53.66;96007.53;5389201;26;19929;-68
2024/04/14 07:13:01;;;;;;;;;;;;;;;7.06;54.23;95999.69;5386971;26;19988;-66
2024/04/14 07:15:26;;;;;;;;;;;;;;;6.88;55.08;96016.34;5390412;26;20393;-64
2024/04/14 07:17:51;;;;;;;;;;;;;;;6.88;54.05;96011.03;5391646;26;20001;-66
2024/04/14 07:20:17;;;;;;;;;;;;;;;7.25;53.34;96002.22;5387566;26;20332;-68
2024/04/14 07:22:43;;;;;;;;;;;;;;;6.54;55.19;96015.03;5389098;26;19929;-69
2024/04/14 07:25:10;;;;;;;;;;;;;;;6.11;57.35;96012.69;5392451;26;19937;-68
2024/04/14 07:27:36;;;;;;;;;;;;;;;5.90;57.97;96020.78;5387589;26;19929;-66
2024/04/14 07:30:01;;;;;;;;;;;;;;;6.03;58.13;96012.56;5392808;26;20370;-71
2024/04/14 07:32:26;;;;;;;;;;;;;;;6.60;56.63;96005.72;5395447;26;20677;-74
2024/04/14 07:34:51;;;;;;;;;;;;;;;6.95;55.19;96013.94;5385032;26;19932;-74
2024/04/14 07:37:17;;;;;;;;;;;;;;;7.42;54.96;96010.38;5395648;26;19969;-75
2024/04/14 07:39:42;;;;;;;;;;;;;;;7.28;55.68;96015.19;5396139;26;19937;-75
2024/04/14 07:42:08;;;;;;;;;;;;;;;6.97;55.12;96019.94;5389766;26;20624;-75
2024/04/14 07:44:33;;;;;;;;;;;;;;;7.59;54.81;96019.34;5395221;26;20300;-73
2024/04/14 07:46:58;;;;;;;;;;;;;;;7.99;54.09;96019.91;5395346;26;19929;-73
2024/04/14 07:49:24;;;;;;;;;;;;;;;7.97;53.31;96016.59;5395827;26;19940;-76
2024/04/14 07:51:49;;;;;;;;;;;;;;;8.26;51.29;96017.34;5395926;26;19936;-74
2024/04/14 07:54:14;;;;;;;;;;;;;;;8.57;50.82;96014.25;5395784;26;19949;-73
2024/04/14 07:56:40;;;;;;;;;;;;;;;8.64;50.75;96007.31;5395167;26;19936;-75
2024/04/14 07:59:05;;;;;;;;;;;;;;;8.97;50.59;96022.63;5392010;26;20411;-74
2024/04/14 08:01:30;;;;;;;;;;;;;;;8.29;52.70;96024.97;5394359;26;19933;-76
2024/04/14 08:03:56;;;;;;;;;;;;;;;8.31;52.36;96015.06;5396330;26;20355;-76
2024/04/14 08:06:21;;;;;;;;;;;;;;;8.59;51.22;96020.22;5394384;26;19936;-74
2024/04/14 08:08:46;;;;;;;;;;;;;;;8.84;50.38;96015.06;5395429;26;19929;-76
2024/04/14 08:11:11;;;;;;;;;;;;;;;8.37;51.65;96017.06;5395260;26;19961;-75
2024/04/14 08:13:37;;;;;;;;;;;;;;;8.22;51.77;96027.41;5395989;26;20454;-74
2024/04/14 08:16:02;;;;;;;;;;;;;;;8.48;52.09;96026.63;5395420;26;19929;-76
2024/04/14 08:18:27;;;;;;;;;;;;;;;8.64;52.09;96030.38;5394909;26;20358;-75
2024/04/14 08:20:59;;;;;;;;;;;;;;;8.90;50.89;96025.06;5380153;26;20410;-77
2024/04/14 08:23:24;;;;;;;;;;;;;;;8.85;51.05;96026.53;5395848;26;19949;-74
2024/04/14 08:25:49;;;;;;;;;;;;;;;8.85;51.30;96035.34;5389438;26;19941;-76
2024/04/14 08:28:14;;;;;;;;;;;;;;;9.80;50.84;96020.28;5392825;26;19981;-76
2024/04/14 08:30:40;;;;;;;;;;;;;;;9.83;48.66;96027.94;5394379;26;19941;-76
2024/04/14 08:33:05;;;;;;;;;;;;;;;9.27;49.99;96035.56;5392295;26;19937;-75
2024/04/14 08:35:30;;;;;;;;;;;;;;;9.00;50.20;96037.41;5394753;26;20400;-76
2024/04/14 08:37:55;;;;;;;;;;;;;;;9.56;48.48;96042.34;5393281;26;19984;-74
2024/04/14 08:40:21;;;;;;;;;;;;;;;9.43;50.08;96033.00;5392976;26;20309;-75
2024/04/14 08:42:46;;;;;;;;;;;;;;;9.63;48.63;96030.06;5389369;26;20432;-76
2024/04/14 08:45:12;;;;;;;;;;;;;;;9.75;49.92;96035.91;5394176;26;19936;-74
2024/04/14 08:47:37;;;;;;;;;;;;;;;10.01;49.18;96034.13;5393054;26;20467;-73
2024/04/14 08:50:03;;;;;;;;;;;;;;;10.09;49.37;96034.16;5389616;26;19965;-75
2024/04/14 08:52:28;;;;;;;;;;;;;;;9.42;49.10;96038.47;5389019;26;19936;-76
2024/04/14 08:54:53;;;;;;;;;;;;;;;10.02;47.89;96030.44;5392747;26;19929;-75
2024/04/14 08:57:19;;;;;;;;;;;;;;;9.96;48.40;96047.91;5393846;26;19969;-75
2024/04/14 08:59:44;;;;;;;;;;;;;;;10.36;47.35;96042.81;5385245;26;20281;-77
2024/04/14 09:02:10;;;;;;;;;;;;;;;10.79;46.40;96039.13;5393393;26;19962;-76
2024/04/14 09:04:35;;;;;;;;;;;;;;;10.45;47.81;96038.34;5392974;26;20002;-75
2024/04/14 09:07:00;;;;;;;;;;;;;;;10.69;47.99;96044.63;5394714;26;19929;-75
2024/04/14 09:09:25;;;;;;;;;;;;;;;11.59;45.87;96040.06;5394291;26;20275;-76
2024/04/14 09:11:51;;;;;;;;;;;;;;;11.41;45.08;96053.66;5395005;26;19929;-76
2024/04/14 09:14:17;;;;;;;;;;;;;;;11.27;45.53;96060.53;5393343;26;19935;-76
2024/04/14 09:16:42;;;;;;;;;;;;;;;10.90;46.11;96059.25;5393681;26;19933;-75
2024/04/14 09:19:07;;;;;;;;;;;;;;;10.68;47.16;96048.31;5393757;26;19994;-74
2024/04/14 09:21:32;;;;;;;;;;;;;;;11.02;47.17;96055.25;5377925;26;19961;-74
2024/04/14 09:23:58;;;;;;;;;;;;;;;10.97;46.26;96046.91;5394640;26;20301;-72
2024/04/14 09:26:23;;;;;;;;;;;;;;;9.67;48.71;96051.81;5392852;26;19929;-74
2024/04/14 09:28:48;;;;;;;;;;;;;;;9.50;50.02;96077.50;5391263;26;20024;-72
2024/04/14 09:31:14;;;;;;;;;;;;;;;9.19;51.66;96063.75;5393726;26;20201;-73
2024/04/14 09:33:39;;;;;;;;;;;;;;;8.71;52.78;96055.31;5392857;26;20341;-74
2024/04/14 09:36:04;;;;;;;;;;;;;;;9.77;51.57;96049.03;5394290;26;20372;-74
2024/04/14 09:38:30;;;;;;;;;;;;;;;9.46;49.97;96047.78;5391675;26;20409;-72
2024/04/14 09:40:55;;;;;;;;;;;;;;;9.35;51.57;96064.00;5385079;26;20387;-73
2024/04/14 09:43:21;;;;;;;;;;;;;;;9.56;50.07;96055.63;5391613;26;19936;-74
2024/04/14 09:45:48;;;;;;;;;;;;;;;9.55;50.88;96060.09;5391897;26;19929;-73
2024/04/14 09:48:13;;;;;;;;;;;;;;;9.43;49.71;96080.81;5390326;26;20003;-74
2024/04/14 09:50:39;;;;;;;;;;;;;;;9.29;49.89;96066.28;5392334;26;19974;-73
2024/04/14 09:53:04;;;;;;;;;;;;;;;10.38;49.53;96064.78;5393826;26;19935;-74
2024/04/14 09:55:29;;;;;;;;;;;;;;;10.02;49.86;96068.53;5391906;26;19936;-73
2024/04/14 09:57:54;;;;;;;;;;;;;;;10.25;48.83;96059.97;5392790;26;20413;-74
2024/04/14 10:00:20;;;;;;;;;;;;;;;10.26;48.29;96056.28;5387588;26;19941;-73
2024/04/14 10:02:48;;;;;;;;;;;;;;;10.47;47.07;96058.47;5393787;26;19933;-72
2024/04/14 10:05:13;;;;;;;;;;;;;;;10.41;48.02;96053.81;5393102;26;20413;-71
2024/04/14 10:07:39;;;;;;;;;;;;;;;11.07;46.32;96052.91;5393135;26;20270;-72
2024/04/14 10:10:07;;;;;;;;;;;;;;;10.30;47.67;96052.28;5393497;26;20409;-74
2024/04/14 10:12:32;;;;;;;;;;;;;;;10.57;46.28;96058.28;5392687;26;20378;-72
2024/04/14 10:15:01;;;;;;;;;;;;;;;10.44;46.35;96060.63;5393942;26;19929;-71
2024/04/14 10:17:28;;;;;;;;;;;;;;;10.75;47.24;96063.44;5391646;26;19929;-72
2024/04/14 10:20:12;;;;;;;;;;;;;;;11.02;45.74;96060.59;5389874;26;19929;-72
2024/04/14 10:22:39;;;;;;;;;;;;;;;11.09;46.54;96079.41;5381734;26;20380;-73
2024/04/14 10:25:04;;;;;;;;;;;;;;;10.58;44.22;96059.94;5393043;26;19936;-72
2024/04/14 10:27:36;;;;;;;;;;;;;;;10.61;45.52;96056.97;5391263;26;19964;-74
2024/04/14 10:30:02;;;;;;;;;;;;;;;10.78;43.72;96059.59;5388427;26;20372;-72
2024/04/14 10:32:27;;;;;;;;;;;;;;;10.05;45.19;96052.28;5390676;26;20012;-73
2024/04/14 10:34:53;;;;;;;;;;;;;;;10.07;45.29;96058.25;5393333;26;19944;-73
2024/04/14 10:37:24;;;;;;;;;;;;;;;10.03;44.09;96061.41;5393093;26;19933;-77
2024/04/14 10:39:50;;;;;;;;;;;;;;;10.12;45.66;96064.91;5393232;26;19929;-75
2024/04/14 10:42:15;;;;;;;;;;;;;;;10.09;45.41;96060.75;5386436;26;19929;-75
2024/04/14 10:44:44;;;;;;;;;;;;;;;10.02;45.25;96063.22;5391581;26;19929;-75
2024/04/14 10:47:10;;;;;;;;;;;;;;;10.27;44.09;96057.94;5384748;26;19940;-74
2024/04/14 10:49:35;;;;;;;;;;;;;;;10.21;44.02;96059.44;5393366;26;19929;-77
2024/04/14 10:52:01;;;;;;;;;;;;;;;9.99;45.76;96063.53;5392546;26;19935;-74
2024/04/14 10:54:26;;;;;;;;;;;;;;;10.04;45.43;96061.25;5393383;26;19936;-74
2024/04/14 10:56:54;;;;;;;;;;;;;;;10.82;42.65;96049.47;5387980;26;19936;-74
2024/04/14 10:59:20;;;;;;;;;;;;;;;11.05;44.32;96044.22;5393308;26;20012;-74
2024/04/14 11:01:46;;;;;;;;;;;;;;;11.11;41.72;96048.91;5393530;26;19966;-77
2024/04/14 11:04:16;;;;;;;;;;;;;;;11.12;42.34;96042.59;5394417;26;19936;-77
2024/04/14 11:06:41;;;;;;;;;;;;;;;11.03;43.60;96045.41;5392299;26;19937;-75
2024/04/14 11:09:06;;;;;;;;;;;;;;;11.64;43.21;96040.41;5397265;26;19936;-75
2024/04/14 11:11:31;;;;;;;;;;;;;;;11.46;40.61;96050.47;5366214;26;19929;-75
2024/04/14 11:13:57;;;;;;;;;;;;;;;10.94;41.62;96060.56;5394277;26;19941;-77
2024/04/14 11:16:22;;;;;;;;;;;;;;;12.11;40.74;96036.97;5396015;26;19937;-76
2024/04/14 11:18:47;;;;;;;;;;;;;;;11.96;39.05;96047.53;5391051;26;20329;-74
2024/04/14 11:21:19;;;;;;;;;;;;;;;11.12;39.76;96037.25;5393766;26;19948;-73
2024/04/14 11:23:46;;;;;;;;;;;;;;;10.93;40.51;96040.28;5393489;26;19929;-74
2024/04/14 11:26:12;;;;;;;;;;;;;;;11.28;39.21;96048.88;5391912;26;20020;-74
2024/04/14 11:28:38;;;;;;;;;;;;;;;11.20;40.66;96035.56;5393569;26;20340;-75
2024/04/14 11:31:03;;;;;;;;;;;;;;;10.81;40.57;96042.47;5397650;26;19929;-74
2024/04/14 11:33:28;;;;;;;;;;;;;;;11.64;39.56;96029.72;5395964;26;20161;-76
2024/04/14 11:35:57;;;;;;;;;;;;;;;11.62;40.91;96033.56;5395707;26;19929;-75
2024/04/14 11:38:22;;;;;;;;;;;;;;;11.64;39.68;96026.22;5384427;26;20441;-74
2024/04/14 11:40:48;;;;;;;;;;;;;;;11.55;39.17;96022.75;5386758;26;19941;-73
2024/04/14 11:43:13;;;;;;;;;;;;;;;11.12;39.53;96034.59;5395882;26;20391;-76
2024/04/14 11:45:48;;;;;;;;;;;;;;;11.34;39.33;96031.34;5395445;26;19929;-75
2024/04/14 11:48:14;;;;;;;;;;;;;;;11.41;40.45;96021.66;5354740;26;20061;-77
2024/04/14 11:50:39;;;;;;;;;;;;;;;11.26;39.69;96018.91;5393237;26;19980;-76
2024/04/14 11:53:04;;;;;;;;;;;;;;;11.78;38.15;96029.97;5395032;26;20460;-76
2024/04/14 11:55:30;;;;;;;;;;;;;;;12.49;38.26;96033.53;5395377;26;19937;-74
2024/04/14 11:57:55;;;;;;;;;;;;;;;13.14;37.16;96019.72;5394662;26;20705;-74
2024/04/14 12:00:20;;;;;;;;;;;;;;;13.04;35.03;96026.19;5390836;26;19928;-73
2024/04/14 12:02:46;;;;;;;;;;;;;;;13.74;35.36;96008.97;5391976;26;19929;-75
2024/04/14 12:05:13;;;;;;;;;;;;;;;13.94;34.23;96017.22;5393077;26;19929;-75
2024/04/14 12:07:38;;;;;;;;;;;;;;;13.61;35.39;96017.66;5395303;26;20001;-75
2024/04/14 12:10:03;;;;;;;;;;;;;;;13.59;34.16;96017.00;5395226;26;20324;-75
2024/04/14 12:12:29;;;;;;;;;;;;;;;13.35;36.96;96013.63;5392862;26;19935;-75
2024/04/14 12:14:54;;;;;;;;;;;;;;;13.84;35.33;96022.03;5394205;26;19984;-76
2024/04/14 12:17:19;;;;;;;;;;;;;;;13.39;35.69;96014.91;5394944;26;19944;-74
2024/04/14 12:19:44;;;;;;;;;;;;;;;14.21;33.96;96005.94;5394638;26;20153;-76
2024/04/14 12:22:10;;;;;;;;;;;;;;;13.90;33.82;96007.91;5376133;26;19940;-77
2024/04/14 12:24:35;;;;;;;;;;;;;;;13.59;36.11;95998.28;5394739;26;19940;-75
2024/04/14 12:27:00;;;;;;;;;;;;;;;13.56;34.65;96001.31;5389757;26;20013;-76
2024/04/14 12:29:25;;;;;;;;;;;;;;;12.36;36.19;96034.97;5394643;26;19937;-74
2024/04/14 12:31:51;;;;;;;;;;;;;;;11.80;36.12;96011.13;5395071;26;19932;-73
2024/04/14 12:34:16;;;;;;;;;;;;;;;11.67;35.22;96014.38;5393208;26;20180;-76
2024/04/14 12:36:41;;;;;;;;;;;;;;;11.71;35.38;96013.00;5392714;26;19929;-76
2024/04/14 12:39:07;;;;;;;;;;;;;;;11.92;34.74;96007.06;5395190;26;19999;-74
2024/04/14 12:41:32;;;;;;;;;;;;;;;11.62;34.09;96002.41;5387652;26;20002;-74
2024/04/14 12:43:57;;;;;;;;;;;;;;;12.03;35.61;95997.78;5393316;26;19929;-74